sensor_id;sensor_type;location;lat;lon;timestamp;P1;durP1;ratioP1;P2;durP2;ratioP2
14306;SDS011;7237;49.500;11.400;2023-07-29T00:00:41;2.78;;;2.58;;
14306;SDS011;7237;49.500;11.400;2023-07-29T00:03:08;3.22;;;2.92;;
14306;SDS011;7237;49.500;11.400;2023-07-29T00:05:36;6.15;;;2.35;;
14306;SDS011;7237;49.500;11.400;2023-07-29T00:08:05;2.55;;;2.35;;
14306;SDS011;7237;49.500;11.400;2023-07-29T00:10:33;3.40;;;2.20;;
14306;SDS011;7237;49.500;11.400;2023-07-29T00:13:02;3.53;;;2.53;;
14306;SDS011;7237;49.500;11.400;2023-07-29T00:15:29;3.03;;;2.33;;
14306;SDS011;7237;49.500;11.400;2023-07-29T00:17:56;2.95;;;2.25;;
14306;SDS011;7237;49.500;11.400;2023-07-29T00:20:23;3.08;;;2.50;;
14306;SDS011;7237;49.500;11.400;2023-07-29T00:22:50;3.45;;;2.40;;
14306;SDS011;7237;49.500;11.400;2023-07-29T00:25:20;4.35;;;2.20;;
14306;SDS011;7237;49.500;11.400;2023-07-29T00:27:47;2.50;;;2.35;;
14306;SDS011;7237;49.500;11.400;2023-07-29T00:30:14;3.28;;;2.80;;
14306;SDS011;7237;49.500;11.400;2023-07-29T00:32:41;5.90;;;2.53;;
14306;SDS011;7237;49.500;11.400;2023-07-29T00:35:08;3.47;;;2.40;;
14306;SDS011;7237;49.500;11.400;2023-07-29T00:37:36;2.70;;;2.50;;
14306;SDS011;7237;49.500;11.400;2023-07-29T00:40:04;3.72;;;2.78;;
14306;SDS011;7237;49.500;11.400;2023-07-29T00:42:32;3.08;;;2.35;;
14306;SDS011;7237;49.500;11.400;2023-07-29T00:44:59;3.08;;;2.35;;
14306;SDS011;7237;49.500;11.400;2023-07-29T00:47:26;2.65;;;2.45;;
14306;SDS011;7237;49.500;11.400;2023-07-29T00:49:53;3.85;;;2.50;;
14306;SDS011;7237;49.500;11.400;2023-07-29T00:52:20;2.83;;;2.50;;
14306;SDS011;7237;49.500;11.400;2023-07-29T00:54:48;4.50;;;2.35;;
14306;SDS011;7237;49.500;11.400;2023-07-29T00:57:15;3.05;;;1.90;;
14306;SDS011;7237;49.500;11.400;2023-07-29T00:59:43;3.80;;;2.40;;
14306;SDS011;7237;49.500;11.400;2023-07-29T01:02:10;2.22;;;2.13;;
14306;SDS011;7237;49.500;11.400;2023-07-29T01:04:37;2.30;;;2.10;;
14306;SDS011;7237;49.500;11.400;2023-07-29T01:07:07;2.95;;;2.63;;
14306;SDS011;7237;49.500;11.400;2023-07-29T01:09:38;3.53;;;2.15;;
14306;SDS011;7237;49.500;11.400;2023-07-29T01:12:08;4.05;;;3.00;;
14306;SDS011;7237;49.500;11.400;2023-07-29T01:14:43;2.40;;;2.30;;
14306;SDS011;7237;49.500;11.400;2023-07-29T01:17:15;4.07;;;2.42;;
14306;SDS011;7237;49.500;11.400;2023-07-29T01:19:48;2.85;;;2.33;;
14306;SDS011;7237;49.500;11.400;2023-07-29T01:22:22;2.88;;;2.60;;
14306;SDS011;7237;49.500;11.400;2023-07-29T01:24:52;3.15;;;2.38;;
14306;SDS011;7237;49.500;11.400;2023-07-29T01:27:19;2.53;;;2.33;;
14306;SDS011;7237;49.500;11.400;2023-07-29T01:29:46;2.63;;;2.40;;
14306;SDS011;7237;49.500;11.400;2023-07-29T01:32:14;2.47;;;2.28;;
14306;SDS011;7237;49.500;11.400;2023-07-29T01:34:43;3.72;;;2.42;;
14306;SDS011;7237;49.500;11.400;2023-07-29T01:37:12;4.63;;;2.60;;
14306;SDS011;7237;49.500;11.400;2023-07-29T01:39:42;3.65;;;2.22;;
14306;SDS011;7237;49.500;11.400;2023-07-29T01:42:12;2.78;;;2.25;;
14306;SDS011;7237;49.500;11.400;2023-07-29T01:44:39;2.30;;;2.10;;
14306;SDS011;7237;49.500;11.400;2023-07-29T01:47:07;3.80;;;2.35;;
14306;SDS011;7237;49.500;11.400;2023-07-29T01:49:34;3.90;;;2.20;;
14306;SDS011;7237;49.500;11.400;2023-07-29T01:52:01;2.60;;;2.40;;
14306;SDS011;7237;49.500;11.400;2023-07-29T01:54:29;4.93;;;2.50;;
14306;SDS011;7237;49.500;11.400;2023-07-29T01:56:56;3.17;;;2.53;;
14306;SDS011;7237;49.500;11.400;2023-07-29T01:59:24;4.57;;;2.33;;
14306;SDS011;7237;49.500;11.400;2023-07-29T02:01:51;2.53;;;2.30;;
14306;SDS011;7237;49.500;11.400;2023-07-29T02:04:18;2.78;;;2.58;;
14306;SDS011;7237;49.500;11.400;2023-07-29T02:06:45;2.70;;;2.50;;
14306;SDS011;7237;49.500;11.400;2023-07-29T02:09:12;2.95;;;2.75;;
14306;SDS011;7237;49.500;11.400;2023-07-29T02:11:39;3.83;;;2.90;;
14306;SDS011;7237;49.500;11.400;2023-07-29T02:14:06;2.88;;;2.47;;
14306;SDS011;7237;49.500;11.400;2023-07-29T02:16:35;7.10;;;2.95;;
14306;SDS011;7237;49.500;11.400;2023-07-29T02:19:02;3.65;;;3.30;;
14306;SDS011;7237;49.500;11.400;2023-07-29T02:21:29;3.60;;;3.08;;
14306;SDS011;7237;49.500;11.400;2023-07-29T02:23:56;4.43;;;2.83;;
14306;SDS011;7237;49.500;11.400;2023-07-29T02:26:23;4.28;;;3.00;;
14306;SDS011;7237;49.500;11.400;2023-07-29T02:28:51;3.53;;;3.13;;
14306;SDS011;7237;49.500;11.400;2023-07-29T02:31:21;3.75;;;3.33;;
14306;SDS011;7237;49.500;11.400;2023-07-29T02:33:49;4.80;;;3.22;;
14306;SDS011;7237;49.500;11.400;2023-07-29T02:36:17;4.38;;;3.45;;
14306;SDS011;7237;49.500;11.400;2023-07-29T02:38:44;3.10;;;2.90;;
14306;SDS011;7237;49.500;11.400;2023-07-29T02:41:11;4.10;;;2.70;;
14306;SDS011;7237;49.500;11.400;2023-07-29T02:43:40;3.88;;;3.42;;
14306;SDS011;7237;49.500;11.400;2023-07-29T02:46:07;3.53;;;2.88;;
14306;SDS011;7237;49.500;11.400;2023-07-29T02:48:34;3.67;;;3.22;;
14306;SDS011;7237;49.500;11.400;2023-07-29T02:51:02;4.18;;;3.72;;
14306;SDS011;7237;49.500;11.400;2023-07-29T02:53:29;5.53;;;3.80;;
14306;SDS011;7237;49.500;11.400;2023-07-29T02:55:56;4.93;;;3.53;;
14306;SDS011;7237;49.500;11.400;2023-07-29T02:58:23;4.53;;;3.30;;
14306;SDS011;7237;49.500;11.400;2023-07-29T03:00:51;4.38;;;3.58;;
14306;SDS011;7237;49.500;11.400;2023-07-29T03:03:18;6.25;;;4.50;;
14306;SDS011;7237;49.500;11.400;2023-07-29T03:05:45;7.10;;;3.90;;
14306;SDS011;7237;49.500;11.400;2023-07-29T03:08:14;4.07;;;3.70;;
14306;SDS011;7237;49.500;11.400;2023-07-29T03:10:41;5.90;;;3.22;;
14306;SDS011;7237;49.500;11.400;2023-07-29T03:13:08;6.05;;;3.65;;
14306;SDS011;7237;49.500;11.400;2023-07-29T03:15:35;4.10;;;3.67;;
14306;SDS011;7237;49.500;11.400;2023-07-29T03:18:02;8.45;;;3.78;;
14306;SDS011;7237;49.500;11.400;2023-07-29T03:20:29;3.80;;;3.38;;
14306;SDS011;7237;49.500;11.400;2023-07-29T03:22:57;5.50;;;4.10;;
14306;SDS011;7237;49.500;11.400;2023-07-29T03:25:25;6.43;;;3.47;;
14306;SDS011;7237;49.500;11.400;2023-07-29T03:27:52;4.40;;;4.00;;
14306;SDS011;7237;49.500;11.400;2023-07-29T03:30:19;4.82;;;3.38;;
14306;SDS011;7237;49.500;11.400;2023-07-29T03:32:47;4.43;;;3.42;;
14306;SDS011;7237;49.500;11.400;2023-07-29T03:35:14;5.20;;;3.75;;
14306;SDS011;7237;49.500;11.400;2023-07-29T03:37:41;5.30;;;4.30;;
14306;SDS011;7237;49.500;11.400;2023-07-29T03:40:08;4.38;;;4.00;;
14306;SDS011;7237;49.500;11.400;2023-07-29T03:42:37;4.45;;;4.05;;
14306;SDS011;7237;49.500;11.400;2023-07-29T03:45:05;5.10;;;3.92;;
14306;SDS011;7237;49.500;11.400;2023-07-29T03:47:33;4.20;;;3.85;;
14306;SDS011;7237;49.500;11.400;2023-07-29T03:50:00;5.25;;;3.80;;
14306;SDS011;7237;49.500;11.400;2023-07-29T03:52:27;3.97;;;3.45;;
14306;SDS011;7237;49.500;11.400;2023-07-29T03:54:54;4.95;;;3.70;;
14306;SDS011;7237;49.500;11.400;2023-07-29T03:57:21;4.50;;;4.07;;
14306;SDS011;7237;49.500;11.400;2023-07-29T03:59:49;4.22;;;3.85;;
14306;SDS011;7237;49.500;11.400;2023-07-29T04:02:16;5.25;;;3.50;;
14306;SDS011;7237;49.500;11.400;2023-07-29T04:04:43;4.50;;;4.13;;
14306;SDS011;7237;49.500;11.400;2023-07-29T04:07:12;4.90;;;4.22;;
14306;SDS011;7237;49.500;11.400;2023-07-29T04:09:39;6.53;;;4.25;;
14306;SDS011;7237;49.500;11.400;2023-07-29T04:12:08;6.90;;;4.35;;
14306;SDS011;7237;49.500;11.400;2023-07-29T04:14:35;5.05;;;4.55;;
14306;SDS011;7237;49.500;11.400;2023-07-29T04:17:04;5.82;;;4.43;;
14306;SDS011;7237;49.500;11.400;2023-07-29T04:19:31;4.30;;;3.90;;
14306;SDS011;7237;49.500;11.400;2023-07-29T04:21:58;7.78;;;4.07;;
14306;SDS011;7237;49.500;11.400;2023-07-29T04:24:25;4.60;;;3.72;;
14306;SDS011;7237;49.500;11.400;2023-07-29T04:26:52;5.82;;;4.18;;
14306;SDS011;7237;49.500;11.400;2023-07-29T04:29:19;5.43;;;4.93;;
14306;SDS011;7237;49.500;11.400;2023-07-29T04:31:47;4.30;;;3.90;;
14306;SDS011;7237;49.500;11.400;2023-07-29T04:34:16;4.35;;;3.92;;
14306;SDS011;7237;49.500;11.400;2023-07-29T04:36:43;4.32;;;3.92;;
14306;SDS011;7237;49.500;11.400;2023-07-29T04:39:11;10.07;;;4.40;;
14306;SDS011;7237;49.500;11.400;2023-07-29T04:41:38;6.47;;;4.25;;
14306;SDS011;7237;49.500;11.400;2023-07-29T04:44:05;4.07;;;3.78;;
14306;SDS011;7237;49.500;11.400;2023-07-29T04:46:32;5.40;;;4.32;;
14306;SDS011;7237;49.500;11.400;2023-07-29T04:48:59;5.85;;;4.10;;
14306;SDS011;7237;49.500;11.400;2023-07-29T04:51:27;3.78;;;3.42;;
14306;SDS011;7237;49.500;11.400;2023-07-29T04:53:56;3.20;;;2.80;;
14306;SDS011;7237;49.500;11.400;2023-07-29T04:56:23;3.33;;;3.13;;
14306;SDS011;7237;49.500;11.400;2023-07-29T04:58:50;2.60;;;2.40;;
14306;SDS011;7237;49.500;11.400;2023-07-29T05:01:18;5.22;;;2.95;;
14306;SDS011;7237;49.500;11.400;2023-07-29T05:03:45;2.67;;;2.47;;
14306;SDS011;7237;49.500;11.400;2023-07-29T05:06:12;6.72;;;2.53;;
14306;SDS011;7237;49.500;11.400;2023-07-29T05:08:40;3.10;;;2.45;;
14306;SDS011;7237;49.500;11.400;2023-07-29T05:11:07;3.67;;;2.38;;
14306;SDS011;7237;49.500;11.400;2023-07-29T05:13:35;2.75;;;2.55;;
14306;SDS011;7237;49.500;11.400;2023-07-29T05:16:02;2.30;;;2.10;;
14306;SDS011;7237;49.500;11.400;2023-07-29T05:18:29;3.60;;;2.22;;
14306;SDS011;7237;49.500;11.400;2023-07-29T05:20:56;4.47;;;2.10;;
14306;SDS011;7237;49.500;11.400;2023-07-29T05:23:23;2.05;;;1.95;;
14306;SDS011;7237;49.500;11.400;2023-07-29T05:25:52;3.45;;;1.80;;
14306;SDS011;7237;49.500;11.400;2023-07-29T05:28:19;4.13;;;2.10;;
14306;SDS011;7237;49.500;11.400;2023-07-29T05:30:46;1.77;;;1.65;;
14306;SDS011;7237;49.500;11.400;2023-07-29T05:33:13;2.30;;;2.10;;
14306;SDS011;7237;49.500;11.400;2023-07-29T05:35:40;3.13;;;1.90;;
14306;SDS011;7237;49.500;11.400;2023-07-29T05:38:07;2.85;;;1.92;;
14306;SDS011;7237;49.500;11.400;2023-07-29T05:40:34;3.20;;;1.92;;
14306;SDS011;7237;49.500;11.400;2023-07-29T05:43:04;2.53;;;1.52;;
14306;SDS011;7237;49.500;11.400;2023-07-29T05:45:31;1.80;;;1.70;;
14306;SDS011;7237;49.500;11.400;2023-07-29T05:47:58;3.10;;;1.70;;
14306;SDS011;7237;49.500;11.400;2023-07-29T05:50:25;4.25;;;2.00;;
14306;SDS011;7237;49.500;11.400;2023-07-29T05:52:52;3.25;;;1.80;;
14306;SDS011;7237;49.500;11.400;2023-07-29T05:55:19;3.83;;;1.75;;
14306;SDS011;7237;49.500;11.400;2023-07-29T05:57:46;2.58;;;1.50;;
14306;SDS011;7237;49.500;11.400;2023-07-29T06:00:15;2.08;;;1.70;;
14306;SDS011;7237;49.500;11.400;2023-07-29T06:02:42;2.70;;;2.10;;
14306;SDS011;7237;49.500;11.400;2023-07-29T06:05:09;2.70;;;1.70;;
14306;SDS011;7237;49.500;11.400;2023-07-29T06:07:36;1.80;;;1.70;;
14306;SDS011;7237;49.500;11.400;2023-07-29T06:10:03;2.95;;;1.40;;
14306;SDS011;7237;49.500;11.400;2023-07-29T06:12:30;3.50;;;1.83;;
14306;SDS011;7237;49.500;11.400;2023-07-29T06:14:57;2.15;;;2.05;;
14306;SDS011;7237;49.500;11.400;2023-07-29T06:17:26;1.52;;;1.38;;
14306;SDS011;7237;49.500;11.400;2023-07-29T06:19:53;3.67;;;1.42;;
14306;SDS011;7237;49.500;11.400;2023-07-29T06:22:20;1.70;;;1.60;;
14306;SDS011;7237;49.500;11.400;2023-07-29T06:24:47;1.60;;;1.50;;
14306;SDS011;7237;49.500;11.400;2023-07-29T06:27:14;3.42;;;1.80;;
14306;SDS011;7237;49.500;11.400;2023-07-29T06:29:41;1.73;;;1.63;;
14306;SDS011;7237;49.500;11.400;2023-07-29T06:32:08;1.98;;;1.77;;
14306;SDS011;7237;49.500;11.400;2023-07-29T06:34:37;1.92;;;1.83;;
14306;SDS011;7237;49.500;11.400;2023-07-29T06:37:04;1.90;;;1.80;;
14306;SDS011;7237;49.500;11.400;2023-07-29T06:39:32;1.70;;;1.60;;
14306;SDS011;7237;49.500;11.400;2023-07-29T06:41:59;3.10;;;2.15;;
14306;SDS011;7237;49.500;11.400;2023-07-29T06:44:27;2.47;;;1.88;;
14306;SDS011;7237;49.500;11.400;2023-07-29T06:46:54;2.08;;;1.88;;
14306;SDS011;7237;49.500;11.400;2023-07-29T06:49:21;1.80;;;1.70;;
14306;SDS011;7237;49.500;11.400;2023-07-29T06:51:49;2.85;;;1.95;;
14306;SDS011;7237;49.500;11.400;2023-07-29T06:54:16;4.78;;;2.03;;
14306;SDS011;7237;49.500;11.400;2023-07-29T06:56:44;1.92;;;1.83;;
14306;SDS011;7237;49.500;11.400;2023-07-29T06:59:11;2.55;;;1.88;;
14306;SDS011;7237;49.500;11.400;2023-07-29T07:01:38;5.43;;;2.00;;
14306;SDS011;7237;49.500;11.400;2023-07-29T07:04:05;3.67;;;2.03;;
14306;SDS011;7237;49.500;11.400;2023-07-29T07:06:32;1.92;;;1.70;;
14306;SDS011;7237;49.500;11.400;2023-07-29T07:09:00;3.83;;;1.77;;
14306;SDS011;7237;49.500;11.400;2023-07-29T07:11:27;5.97;;;2.45;;
14306;SDS011;7237;49.500;11.400;2023-07-29T07:13:54;2.50;;;1.80;;
14306;SDS011;7237;49.500;11.400;2023-07-29T07:16:21;2.70;;;2.00;;
14306;SDS011;7237;49.500;11.400;2023-07-29T07:18:48;6.07;;;2.30;;
14306;SDS011;7237;49.500;11.400;2023-07-29T07:21:15;3.08;;;1.85;;
14306;SDS011;7237;49.500;11.400;2023-07-29T07:23:43;3.22;;;2.17;;
14306;SDS011;7237;49.500;11.400;2023-07-29T07:26:11;3.38;;;2.00;;
14306;SDS011;7237;49.500;11.400;2023-07-29T07:28:38;3.22;;;2.70;;
14306;SDS011;7237;49.500;11.400;2023-07-29T07:31:05;7.50;;;2.78;;
14306;SDS011;7237;49.500;11.400;2023-07-29T07:33:32;4.07;;;2.50;;
14306;SDS011;7237;49.500;11.400;2023-07-29T07:35:59;2.65;;;2.38;;
14306;SDS011;7237;49.500;11.400;2023-07-29T07:38:26;2.28;;;2.03;;
14306;SDS011;7237;49.500;11.400;2023-07-29T07:40:53;3.63;;;2.15;;
14306;SDS011;7237;49.500;11.400;2023-07-29T07:43:23;2.28;;;2.05;;
14306;SDS011;7237;49.500;11.400;2023-07-29T07:45:51;5.35;;;2.30;;
14306;SDS011;7237;49.500;11.400;2023-07-29T07:48:18;2.70;;;1.83;;
14306;SDS011;7237;49.500;11.400;2023-07-29T07:50:45;8.30;;;2.72;;
14306;SDS011;7237;49.500;11.400;2023-07-29T07:53:12;2.60;;;2.00;;
14306;SDS011;7237;49.500;11.400;2023-07-29T07:55:39;2.38;;;2.10;;
14306;SDS011;7237;49.500;11.400;2023-07-29T07:58:06;3.15;;;2.05;;
14306;SDS011;7237;49.500;11.400;2023-07-29T08:00:34;2.75;;;2.17;;
14306;SDS011;7237;49.500;11.400;2023-07-29T08:03:01;2.78;;;1.70;;
14306;SDS011;7237;49.500;11.400;2023-07-29T08:05:29;1.98;;;1.73;;
14306;SDS011;7237;49.500;11.400;2023-07-29T08:07:57;2.30;;;2.10;;
14306;SDS011;7237;49.500;11.400;2023-07-29T08:10:24;2.30;;;2.08;;
14306;SDS011;7237;49.500;11.400;2023-07-29T08:12:51;4.13;;;2.08;;
14306;SDS011;7237;49.500;11.400;2023-07-29T08:15:18;2.35;;;1.70;;
14306;SDS011;7237;49.500;11.400;2023-07-29T08:17:46;3.28;;;1.65;;
14306;SDS011;7237;49.500;11.400;2023-07-29T08:20:13;3.53;;;1.92;;
14306;SDS011;7237;49.500;11.400;2023-07-29T08:22:40;2.78;;;1.67;;
14306;SDS011;7237;49.500;11.400;2023-07-29T08:25:08;1.90;;;1.80;;
14306;SDS011;7237;49.500;11.400;2023-07-29T08:27:35;3.67;;;1.90;;
14306;SDS011;7237;49.500;11.400;2023-07-29T08:30:02;2.35;;;1.83;;
14306;SDS011;7237;49.500;11.400;2023-07-29T08:32:29;3.22;;;1.73;;
14306;SDS011;7237;49.500;11.400;2023-07-29T08:34:58;2.15;;;1.80;;
14306;SDS011;7237;49.500;11.400;2023-07-29T08:37:25;3.22;;;2.45;;
14306;SDS011;7237;49.500;11.400;2023-07-29T08:39:52;5.07;;;2.20;;
14306;SDS011;7237;49.500;11.400;2023-07-29T08:42:20;3.78;;;2.25;;
14306;SDS011;7237;49.500;11.400;2023-07-29T08:44:47;2.75;;;2.03;;
14306;SDS011;7237;49.500;11.400;2023-07-29T08:47:15;5.47;;;3.20;;
14306;SDS011;7237;49.500;11.400;2023-07-29T08:49:43;5.78;;;3.58;;
14306;SDS011;7237;49.500;11.400;2023-07-29T08:52:13;3.80;;;2.22;;
14306;SDS011;7237;49.500;11.400;2023-07-29T08:54:40;4.15;;;2.17;;
14306;SDS011;7237;49.500;11.400;2023-07-29T08:57:07;5.63;;;2.15;;
14306;SDS011;7237;49.500;11.400;2023-07-29T08:59:35;2.85;;;2.00;;
14306;SDS011;7237;49.500;11.400;2023-07-29T09:02:02;2.42;;;1.50;;
14306;SDS011;7237;49.500;11.400;2023-07-29T09:04:29;3.95;;;1.45;;
14306;SDS011;7237;49.500;11.400;2023-07-29T09:06:56;2.15;;;1.48;;
14306;SDS011;7237;49.500;11.400;2023-07-29T09:09:26;4.28;;;1.63;;
14306;SDS011;7237;49.500;11.400;2023-07-29T09:11:53;2.67;;;1.80;;
14306;SDS011;7237;49.500;11.400;2023-07-29T09:14:20;2.17;;;1.60;;
14306;SDS011;7237;49.500;11.400;2023-07-29T09:16:48;2.67;;;1.70;;
14306;SDS011;7237;49.500;11.400;2023-07-29T09:19:15;1.40;;;1.30;;
14306;SDS011;7237;49.500;11.400;2023-07-29T09:21:42;1.65;;;1.40;;
14306;SDS011;7237;49.500;11.400;2023-07-29T09:24:09;1.85;;;1.30;;
14306;SDS011;7237;49.500;11.400;2023-07-29T09:26:40;1.58;;;1.48;;
14306;SDS011;7237;49.500;11.400;2023-07-29T09:29:07;1.67;;;1.20;;
14306;SDS011;7237;49.500;11.400;2023-07-29T09:31:34;2.10;;;1.05;;
14306;SDS011;7237;49.500;11.400;2023-07-29T09:34:02;1.48;;;1.30;;
14306;SDS011;7237;49.500;11.400;2023-07-29T09:36:31;1.25;;;1.15;;
14306;SDS011;7237;49.500;11.400;2023-07-29T09:38:59;2.55;;;1.00;;
14306;SDS011;7237;49.500;11.400;2023-07-29T09:41:26;1.23;;;1.10;;
14306;SDS011;7237;49.500;11.400;2023-07-29T09:43:57;1.15;;;0.95;;
14306;SDS011;7237;49.500;11.400;2023-07-29T09:46:25;2.22;;;1.52;;
14306;SDS011;7237;49.500;11.400;2023-07-29T09:48:53;1.63;;;1.30;;
14306;SDS011;7237;49.500;11.400;2023-07-29T09:51:21;3.95;;;1.83;;
14306;SDS011;7237;49.500;11.400;2023-07-29T09:53:49;1.70;;;1.35;;
14306;SDS011;7237;49.500;11.400;2023-07-29T09:56:17;2.22;;;1.80;;
14306;SDS011;7237;49.500;11.400;2023-07-29T09:58:44;2.35;;;1.70;;
14306;SDS011;7237;49.500;11.400;2023-07-29T10:01:13;6.43;;;1.55;;
14306;SDS011;7237;49.500;11.400;2023-07-29T10:03:40;2.10;;;1.60;;
14306;SDS011;7237;49.500;11.400;2023-07-29T10:06:07;1.50;;;1.40;;
14306;SDS011;7237;49.500;11.400;2023-07-29T10:08:34;1.85;;;1.75;;
14306;SDS011;7237;49.500;11.400;2023-07-29T10:11:03;1.67;;;1.58;;
14306;SDS011;7237;49.500;11.400;2023-07-29T10:13:32;1.85;;;1.63;;
14306;SDS011;7237;49.500;11.400;2023-07-29T10:15:59;3.22;;;1.70;;
14306;SDS011;7237;49.500;11.400;2023-07-29T10:18:29;1.88;;;1.45;;
14306;SDS011;7237;49.500;11.400;2023-07-29T10:20:56;1.90;;;1.70;;
14306;SDS011;7237;49.500;11.400;2023-07-29T10:23:24;1.48;;;1.38;;
14306;SDS011;7237;49.500;11.400;2023-07-29T10:25:54;1.65;;;1.55;;
14306;SDS011;7237;49.500;11.400;2023-07-29T10:28:21;1.30;;;1.20;;
14306;SDS011;7237;49.500;11.400;2023-07-29T10:30:52;1.27;;;1.27;;
14306;SDS011;7237;49.500;11.400;2023-07-29T10:33:20;2.75;;;1.25;;
14306;SDS011;7237;49.500;11.400;2023-07-29T10:35:49;1.83;;;1.40;;
14306;SDS011;7237;49.500;11.400;2023-07-29T10:38:16;1.40;;;1.30;;
14306;SDS011;7237;49.500;11.400;2023-07-29T10:40:44;1.48;;;1.38;;
14306;SDS011;7237;49.500;11.400;2023-07-29T10:43:11;1.50;;;1.40;;
14306;SDS011;7237;49.500;11.400;2023-07-29T10:45:40;5.15;;;1.55;;
14306;SDS011;7237;49.500;11.400;2023-07-29T10:48:10;1.60;;;1.50;;
14306;SDS011;7237;49.500;11.400;2023-07-29T10:50:37;1.90;;;1.70;;
14306;SDS011;7237;49.500;11.400;2023-07-29T10:53:06;5.68;;;2.00;;
14306;SDS011;7237;49.500;11.400;2023-07-29T10:55:33;2.75;;;2.00;;
14306;SDS011;7237;49.500;11.400;2023-07-29T10:58:05;2.70;;;1.90;;
14306;SDS011;7237;49.500;11.400;2023-07-29T11:00:32;2.20;;;2.10;;
14306;SDS011;7237;49.500;11.400;2023-07-29T11:03:01;3.53;;;2.38;;
14306;SDS011;7237;49.500;11.400;2023-07-29T11:05:41;2.05;;;1.90;;
14306;SDS011;7237;49.500;11.400;2023-07-29T11:08:17;3.30;;;2.38;;
14306;SDS011;7237;49.500;11.400;2023-07-29T11:10:44;2.63;;;2.30;;
14306;SDS011;7237;49.500;11.400;2023-07-29T11:13:11;2.85;;;2.20;;
14306;SDS011;7237;49.500;11.400;2023-07-29T11:15:39;3.13;;;2.03;;
14306;SDS011;7237;49.500;11.400;2023-07-29T11:18:06;3.15;;;2.10;;
14306;SDS011;7237;49.500;11.400;2023-07-29T11:20:33;5.53;;;2.10;;
14306;SDS011;7237;49.500;11.400;2023-07-29T11:23:01;2.75;;;2.00;;
14306;SDS011;7237;49.500;11.400;2023-07-29T11:25:30;2.20;;;1.85;;
14306;SDS011;7237;49.500;11.400;2023-07-29T11:27:59;4.00;;;2.00;;
14306;SDS011;7237;49.500;11.400;2023-07-29T11:30:26;1.77;;;1.67;;
14306;SDS011;7237;49.500;11.400;2023-07-29T11:32:54;3.08;;;2.10;;
14306;SDS011;7237;49.500;11.400;2023-07-29T11:35:22;7.07;;;1.80;;
14306;SDS011;7237;49.500;11.400;2023-07-29T11:37:49;2.25;;;1.85;;
14306;SDS011;7237;49.500;11.400;2023-07-29T11:40:17;2.78;;;1.88;;
14306;SDS011;7237;49.500;11.400;2023-07-29T11:42:46;2.22;;;2.05;;
14306;SDS011;7237;49.500;11.400;2023-07-29T11:45:15;3.50;;;2.20;;
14306;SDS011;7237;49.500;11.400;2023-07-29T11:47:42;1.67;;;1.58;;
14306;SDS011;7237;49.500;11.400;2023-07-29T11:50:10;1.88;;;1.75;;
14306;SDS011;7237;49.500;11.400;2023-07-29T11:52:39;2.85;;;2.03;;
14306;SDS011;7237;49.500;11.400;2023-07-29T11:55:07;1.70;;;1.60;;
14306;SDS011;7237;49.500;11.400;2023-07-29T11:57:35;3.83;;;3.47;;
14306;SDS011;7237;49.500;11.400;2023-07-29T12:00:05;3.60;;;2.40;;
14306;SDS011;7237;49.500;11.400;2023-07-29T12:02:32;1.98;;;1.80;;
14306;SDS011;7237;49.500;11.400;2023-07-29T12:04:59;3.75;;;3.45;;
14306;SDS011;7237;49.500;11.400;2023-07-29T12:07:27;2.53;;;2.30;;
14306;SDS011;7237;49.500;11.400;2023-07-29T12:09:54;3.25;;;2.30;;
14306;SDS011;7237;49.500;11.400;2023-07-29T12:12:22;3.00;;;1.95;;
14306;SDS011;7237;49.500;11.400;2023-07-29T12:14:49;2.03;;;1.83;;
14306;SDS011;7237;49.500;11.400;2023-07-29T12:17:17;2.13;;;1.95;;
14306;SDS011;7237;49.500;11.400;2023-07-29T12:19:45;1.60;;;1.50;;
14306;SDS011;7237;49.500;11.400;2023-07-29T12:22:12;1.95;;;1.20;;
14306;SDS011;7237;49.500;11.400;2023-07-29T12:24:44;1.38;;;1.30;;
14306;SDS011;7237;49.500;11.400;2023-07-29T12:27:11;1.48;;;1.38;;
14306;SDS011;7237;49.500;11.400;2023-07-29T12:29:41;4.15;;;1.60;;
14306;SDS011;7237;49.500;11.400;2023-07-29T12:32:09;1.25;;;1.23;;
14306;SDS011;7237;49.500;11.400;2023-07-29T12:34:38;2.55;;;1.65;;
14306;SDS011;7237;49.500;11.400;2023-07-29T12:37:05;1.30;;;1.20;;
14306;SDS011;7237;49.500;11.400;2023-07-29T12:39:33;1.55;;;1.45;;
14306;SDS011;7237;49.500;11.400;2023-07-29T12:42:01;1.42;;;1.33;;
14306;SDS011;7237;49.500;11.400;2023-07-29T12:44:29;1.88;;;1.55;;
14306;SDS011;7237;49.500;11.400;2023-07-29T12:46:57;1.40;;;1.30;;
14306;SDS011;7237;49.500;11.400;2023-07-29T12:49:24;2.33;;;1.60;;
14306;SDS011;7237;49.500;11.400;2023-07-29T12:51:52;2.35;;;1.60;;
14306;SDS011;7237;49.500;11.400;2023-07-29T12:54:19;1.60;;;1.50;;
14306;SDS011;7237;49.500;11.400;2023-07-29T12:56:46;4.80;;;1.70;;
14306;SDS011;7237;49.500;11.400;2023-07-29T12:59:13;3.45;;;1.60;;
14306;SDS011;7237;49.500;11.400;2023-07-29T13:01:40;1.70;;;1.60;;
14306;SDS011;7237;49.500;11.400;2023-07-29T13:04:09;1.50;;;1.40;;
14306;SDS011;7237;49.500;11.400;2023-07-29T13:06:37;2.90;;;1.63;;
14306;SDS011;7237;49.500;11.400;2023-07-29T13:09:06;1.95;;;1.83;;
14306;SDS011;7237;49.500;11.400;2023-07-29T13:11:33;2.15;;;1.85;;
14306;SDS011;7237;49.500;11.400;2023-07-29T13:14:00;1.80;;;1.70;;
14306;SDS011;7237;49.500;11.400;2023-07-29T13:16:27;1.45;;;1.35;;
14306;SDS011;7237;49.500;11.400;2023-07-29T13:18:54;1.70;;;1.60;;
14306;SDS011;7237;49.500;11.400;2023-07-29T13:21:21;1.92;;;1.58;;
14306;SDS011;7237;49.500;11.400;2023-07-29T13:23:48;1.40;;;1.30;;
14306;SDS011;7237;49.500;11.400;2023-07-29T13:26:17;1.60;;;1.50;;
14306;SDS011;7237;49.500;11.400;2023-07-29T13:28:44;1.85;;;1.67;;
14306;SDS011;7237;49.500;11.400;2023-07-29T13:31:11;1.30;;;1.20;;
14306;SDS011;7237;49.500;11.400;2023-07-29T13:33:38;2.05;;;1.30;;
14306;SDS011;7237;49.500;11.400;2023-07-29T13:36:06;1.63;;;1.33;;
14306;SDS011;7237;49.500;11.400;2023-07-29T13:38:34;1.58;;;1.48;;
14306;SDS011;7237;49.500;11.400;2023-07-29T13:41:01;2.25;;;1.40;;
14306;SDS011;7237;49.500;11.400;2023-07-29T13:43:29;4.88;;;1.50;;
14306;SDS011;7237;49.500;11.400;2023-07-29T13:45:56;2.92;;;1.30;;
14306;SDS011;7237;49.500;11.400;2023-07-29T13:48:23;1.92;;;1.52;;
14306;SDS011;7237;49.500;11.400;2023-07-29T13:50:50;1.27;;;1.17;;
14306;SDS011;7237;49.500;11.400;2023-07-29T13:53:17;1.33;;;1.23;;
14306;SDS011;7237;49.500;11.400;2023-07-29T13:55:44;1.35;;;1.25;;
14306;SDS011;7237;49.500;11.400;2023-07-29T13:58:12;1.50;;;1.40;;
14306;SDS011;7237;49.500;11.400;2023-07-29T14:00:40;3.92;;;1.38;;
14306;SDS011;7237;49.500;11.400;2023-07-29T14:03:07;1.30;;;1.20;;
14306;SDS011;7237;49.500;11.400;2023-07-29T14:05:34;2.60;;;1.40;;
14306;SDS011;7237;49.500;11.400;2023-07-29T14:08:01;4.03;;;1.65;;
14306;SDS011;7237;49.500;11.400;2023-07-29T14:10:28;3.00;;;1.50;;
14306;SDS011;7237;49.500;11.400;2023-07-29T14:12:55;1.45;;;1.20;;
14306;SDS011;7237;49.500;11.400;2023-07-29T14:15:22;1.25;;;1.13;;
14306;SDS011;7237;49.500;11.400;2023-07-29T14:17:51;1.60;;;1.50;;
14306;SDS011;7237;49.500;11.400;2023-07-29T14:20:18;1.60;;;1.25;;
14306;SDS011;7237;49.500;11.400;2023-07-29T14:22:45;1.13;;;1.05;;
14306;SDS011;7237;49.500;11.400;2023-07-29T14:25:13;1.35;;;1.33;;
14306;SDS011;7237;49.500;11.400;2023-07-29T14:27:40;1.20;;;1.20;;
14306;SDS011;7237;49.500;11.400;2023-07-29T14:30:08;1.23;;;1.13;;
14306;SDS011;7237;49.500;11.400;2023-07-29T14:32:35;1.40;;;1.30;;
14306;SDS011;7237;49.500;11.400;2023-07-29T14:35:04;1.50;;;1.40;;
14306;SDS011;7237;49.500;11.400;2023-07-29T14:37:32;1.35;;;1.23;;
14306;SDS011;7237;49.500;11.400;2023-07-29T14:40:00;1.20;;;1.10;;
14306;SDS011;7237;49.500;11.400;2023-07-29T14:42:27;3.33;;;1.42;;
14306;SDS011;7237;49.500;11.400;2023-07-29T14:44:54;1.90;;;1.48;;
14306;SDS011;7237;49.500;11.400;2023-07-29T14:47:22;1.77;;;1.30;;
14306;SDS011;7237;49.500;11.400;2023-07-29T14:49:49;1.67;;;1.15;;